sensor_id;sensor_type;location;lat;lon;timestamp;pressure;altitude;pressure_sealevel;temperature;humidity
55010;BME280;40903;51.638;7.528;2023-04-28T00:00:53;100842.50;;;9.45;60.15
55010;BME280;40903;51.638;7.528;2023-04-28T00:03:18;100840.34;;;9.42;60.44
55010;BME280;40903;51.638;7.528;2023-04-28T00:05:43;100837.91;;;9.40;60.56
55010;BME280;40903;51.638;7.528;2023-04-28T00:08:09;100829.19;;;9.43;61.21
55010;BME280;40903;51.638;7.528;2023-04-28T00:10:34;100827.28;;;9.39;60.40
55010;BME280;40903;51.638;7.528;2023-04-28T00:12:59;100830.28;;;9.37;60.37
55010;BME280;40903;51.638;7.528;2023-04-28T00:15:25;100824.03;;;9.37;61.54
55010;BME280;40903;51.638;7.528;2023-04-28T00:17:50;100820.78;;;9.30;61.09
55010;BME280;40903;51.638;7.528;2023-04-28T00:20:15;100814.25;;;9.31;61.17
55010;BME280;40903;51.638;7.528;2023-04-28T00:22:40;100813.44;;;9.30;61.12
55010;BME280;40903;51.638;7.528;2023-04-28T00:25:06;100811.00;;;9.29;61.45
55010;BME280;40903;51.638;7.528;2023-04-28T00:27:32;100811.00;;;9.29;61.14
55010;BME280;40903;51.638;7.528;2023-04-28T00:29:57;100796.88;;;9.27;62.11
55010;BME280;40903;51.638;7.528;2023-04-28T00:32:23;100790.63;;;9.26;61.71
55010;BME280;40903;51.638;7.528;2023-04-28T00:34:48;100786.50;;;9.29;61.30
55010;BME280;40903;51.638;7.528;2023-04-28T00:37:13;100783.53;;;9.30;61.72
55010;BME280;40903;51.638;7.528;2023-04-28T00:39:38;100780.28;;;9.28;62.23
55010;BME280;40903;51.638;7.528;2023-04-28T00:42:05;100778.88;;;9.31;62.58
55010;BME280;40903;51.638;7.528;2023-04-28T00:44:30;100776.72;;;9.28;62.46
55010;BME280;40903;51.638;7.528;2023-04-28T00:46:56;100781.38;;;9.27;62.25
55010;BME280;40903;51.638;7.528;2023-04-28T00:49:22;100778.66;;;9.22;62.83
55010;BME280;40903;51.638;7.528;2023-04-28T00:51:47;100770.50;;;9.22;63.27
55010;BME280;40903;51.638;7.528;2023-04-28T00:54:12;100770.25;;;9.19;63.39
55010;BME280;40903;51.638;7.528;2023-04-28T00:56:38;100769.97;;;9.20;63.91
55010;BME280;40903;51.638;7.528;2023-04-28T00:59:03;100765.88;;;9.23;63.39
55010;BME280;40903;51.638;7.528;2023-04-28T01:01:29;100754.72;;;9.24;63.83
55010;BME280;40903;51.638;7.528;2023-04-28T01:03:54;100752.53;;;9.21;63.35
55010;BME280;40903;51.638;7.528;2023-04-28T01:06:20;100753.06;;;9.23;63.55
55010;BME280;40903;51.638;7.528;2023-04-28T01:08:47;100747.09;;;9.21;64.47
55010;BME280;40903;51.638;7.528;2023-04-28T01:11:12;100750.13;;;9.20;64.53
55010;BME280;40903;51.638;7.528;2023-04-28T01:13:40;100750.66;;;9.22;64.74
55010;BME280;40903;51.638;7.528;2023-04-28T01:16:06;100753.06;;;9.23;64.98
55010;BME280;40903;51.638;7.528;2023-04-28T01:18:31;100761.78;;;9.25;64.89
55010;BME280;40903;51.638;7.528;2023-04-28T01:20:57;100762.63;;;9.21;64.75
55010;BME280;40903;51.638;7.528;2023-04-28T01:23:22;100755.78;;;9.23;65.58
55010;BME280;40903;51.638;7.528;2023-04-28T01:25:47;100757.72;;;9.23;64.58
55010;BME280;40903;51.638;7.528;2023-04-28T01:28:12;100753.63;;;9.20;65.47
55010;BME280;40903;51.638;7.528;2023-04-28T01:30:37;100759.91;;;9.21;65.45
55010;BME280;40903;51.638;7.528;2023-04-28T01:33:03;100753.06;;;9.23;66.86
55010;BME280;40903;51.638;7.528;2023-04-28T01:35:28;100749.81;;;9.21;66.51
55010;BME280;40903;51.638;7.528;2023-04-28T01:37:53;100749.28;;;9.24;66.47
55010;BME280;40903;51.638;7.528;2023-04-28T01:40:18;100744.63;;;9.25;68.22
55010;BME280;40903;51.638;7.528;2023-04-28T01:42:44;100739.47;;;9.28;69.59
55010;BME280;40903;51.638;7.528;2023-04-28T01:45:09;100737.84;;;9.27;71.47
55010;BME280;40903;51.638;7.528;2023-04-28T01:47:35;100730.50;;;9.23;74.67
55010;BME280;40903;51.638;7.528;2023-04-28T01:50:00;100728.31;;;9.25;74.93
55010;BME280;40903;51.638;7.528;2023-04-28T01:52:25;100730.50;;;9.23;75.55
55010;BME280;40903;51.638;7.528;2023-04-28T01:54:51;100729.69;;;9.22;76.14
55010;BME280;40903;51.638;7.528;2023-04-28T01:57:17;100722.63;;;9.21;75.98
55010;BME280;40903;51.638;7.528;2023-04-28T01:59:42;100729.72;;;9.17;75.69
55010;BME280;40903;51.638;7.528;2023-04-28T02:02:07;100730.53;;;9.18;75.85
55010;BME280;40903;51.638;7.528;2023-04-28T02:04:32;100733.81;;;9.15;76.32
55010;BME280;40903;51.638;7.528;2023-04-28T02:06:58;100733.00;;;9.14;76.24
55010;BME280;40903;51.638;7.528;2023-04-28T02:09:23;100734.38;;;9.17;76.33
55010;BME280;40903;51.638;7.528;2023-04-28T02:11:48;100740.34;;;9.19;76.49
55010;BME280;40903;51.638;7.528;2023-04-28T02:14:14;100733.28;;;9.18;76.97
55010;BME280;40903;51.638;7.528;2023-04-28T02:16:39;100741.13;;;9.19;77.21
55010;BME280;40903;51.638;7.528;2023-04-28T02:19:04;100735.69;;;9.19;78.03
55010;BME280;40903;51.638;7.528;2023-04-28T02:21:30;100724.81;;;9.19;79.02
55010;BME280;40903;51.638;7.528;2023-04-28T02:23:55;100720.75;;;9.17;79.71
55010;BME280;40903;51.638;7.528;2023-04-28T02:26:21;100723.47;;;9.17;79.93
55010;BME280;40903;51.638;7.528;2023-04-28T02:28:46;100716.69;;;9.14;80.46
55010;BME280;40903;51.638;7.528;2023-04-28T02:31:13;100721.03;;;9.15;80.09
55010;BME280;40903;51.638;7.528;2023-04-28T02:33:38;100715.59;;;9.15;80.13
55010;BME280;40903;51.638;7.528;2023-04-28T02:36:03;100708.22;;;9.16;79.34
55010;BME280;40903;51.638;7.528;2023-04-28T02:38:29;100705.50;;;9.16;79.72
55010;BME280;40903;51.638;7.528;2023-04-28T02:40:58;100702.78;;;9.16;79.96
55010;BME280;40903;51.638;7.528;2023-04-28T02:43:24;100702.78;;;9.16;79.71
55010;BME280;40903;51.638;7.528;2023-04-28T02:45:49;100706.06;;;9.13;80.35
55010;BME280;40903;51.638;7.528;2023-04-28T02:48:15;100712.59;;;9.12;80.36
55010;BME280;40903;51.638;7.528;2023-04-28T02:50:40;100714.53;;;9.11;80.70
55010;BME280;40903;51.638;7.528;2023-04-28T02:53:05;100716.16;;;9.12;81.16
55010;BME280;40903;51.638;7.528;2023-04-28T02:55:30;100704.44;;;9.12;82.34
55010;BME280;40903;51.638;7.528;2023-04-28T02:57:56;100712.03;;;9.15;83.96
55010;BME280;40903;51.638;7.528;2023-04-28T03:00:21;100709.63;;;9.13;85.45
55010;BME280;40903;51.638;7.528;2023-04-28T03:02:46;100708.56;;;9.09;88.05
55010;BME280;40903;51.638;7.528;2023-04-28T03:05:11;100709.09;;;9.06;88.08
55010;BME280;40903;51.638;7.528;2023-04-28T03:07:37;100708.00;;;9.07;89.16
55010;BME280;40903;51.638;7.528;2023-04-28T03:10:02;100699.84;;;9.07;90.47
55010;BME280;40903;51.638;7.528;2023-04-28T03:12:28;100700.72;;;9.03;92.89
55010;BME280;40903;51.638;7.528;2023-04-28T03:14:53;100696.38;;;9.02;93.93
55010;BME280;40903;51.638;7.528;2023-04-28T03:17:18;100702.06;;;9.00;95.14
55010;BME280;40903;51.638;7.528;2023-04-28T03:19:43;100699.91;;;8.97;96.86
55010;BME280;40903;51.638;7.528;2023-04-28T03:22:09;100700.47;;;8.94;97.97
55010;BME280;40903;51.638;7.528;2023-04-28T03:24:34;100697.78;;;8.89;99.06
55010;BME280;40903;51.638;7.528;2023-04-28T03:26:59;100686.41;;;8.82;100.00
55010;BME280;40903;51.638;7.528;2023-04-28T03:29:26;100679.34;;;8.81;100.00
55010;BME280;40903;51.638;7.528;2023-04-28T03:31:51;100678.50;;;8.81;100.00
55010;BME280;40903;51.638;7.528;2023-04-28T03:34:16;100679.88;;;8.78;100.00
55010;BME280;40903;51.638;7.528;2023-04-28T03:36:41;100678.53;;;8.76;100.00
55010;BME280;40903;51.638;7.528;2023-04-28T03:39:07;100672.31;;;8.70;100.00
55010;BME280;40903;51.638;7.528;2023-04-28T03:41:33;100679.94;;;8.68;100.00
55010;BME280;40903;51.638;7.528;2023-04-28T03:43:58;100676.69;;;8.66;100.00
55010;BME280;40903;51.638;7.528;2023-04-28T03:46:24;100668.25;;;8.68;100.00
55010;BME280;40903;51.638;7.528;2023-04-28T03:48:49;100670.44;;;8.66;100.00
55010;BME280;40903;51.638;7.528;2023-04-28T03:51:14;100660.91;;;8.68;100.00
55010;BME280;40903;51.638;7.528;2023-04-28T03:53:39;100662.81;;;8.68;100.00
55010;BME280;40903;51.638;7.528;2023-04-28T03:56:05;100659.00;;;8.69;100.00
55010;BME280;40903;51.638;7.528;2023-04-28T03:58:30;100650.31;;;8.67;100.00
55010;BME280;40903;51.638;7.528;2023-04-28T04:00:55;100651.66;;;8.69;100.00
55010;BME280;40903;51.638;7.528;2023-04-28T04:03:21;100645.94;;;8.71;100.00
55010;BME280;40903;51.638;7.528;2023-04-28T04:05:50;100639.97;;;8.69;100.00
55010;BME280;40903;51.638;7.528;2023-04-28T04:08:15;100630.19;;;8.68;100.00
55010;BME280;40903;51.638;7.528;2023-04-28T04:10:40;100626.13;;;8.65;100.00
55010;BME280;40903;51.638;7.528;2023-04-28T04:13:05;100634.56;;;8.64;100.00
55010;BME280;40903;51.638;7.528;2023-04-28T04:15:30;100634.28;;;8.65;100.00
55010;BME280;40903;51.638;7.528;2023-04-28T04:17:56;100632.41;;;8.61;100.00
55010;BME280;40903;51.638;7.528;2023-04-28T04:20:21;100628.88;;;8.60;100.00
55010;BME280;40903;51.638;7.528;2023-04-28T04:22:47;100622.34;;;8.61;100.00
55010;BME280;40903;51.638;7.528;2023-04-28T04:25:12;100620.13;;;8.63;100.00
55010;BME280;40903;51.638;7.528;2023-04-28T04:27:37;100617.69;;;8.67;100.00
55010;BME280;40903;51.638;7.528;2023-04-28T04:30:02;100618.22;;;8.69;100.00
55010;BME280;40903;51.638;7.528;2023-04-28T04:32:28;100605.72;;;8.73;100.00
55010;BME280;40903;51.638;7.528;2023-04-28T04:34:53;100601.09;;;8.68;100.00
55010;BME280;40903;51.638;7.528;2023-04-28T04:37:18;100607.59;;;8.72;100.00
55010;BME280;40903;51.638;7.528;2023-04-28T04:39:43;100606.25;;;8.75;100.00
55010;BME280;40903;51.638;7.528;2023-04-28T04:42:09;100605.66;;;8.78;100.00
55010;BME280;40903;51.638;7.528;2023-04-28T04:44:34;100601.59;;;8.80;100.00
55010;BME280;40903;51.638;7.528;2023-04-28T04:46:59;100602.69;;;8.79;100.00
55010;BME280;40903;51.638;7.528;2023-04-28T04:49:24;100604.84;;;8.82;100.00
55010;BME280;40903;51.638;7.528;2023-04-28T04:51:49;100600.44;;;8.86;100.00
55010;BME280;40903;51.638;7.528;2023-04-28T04:54:15;100599.09;;;8.89;100.00
55010;BME280;40903;51.638;7.528;2023-04-28T04:56:40;100598.25;;;8.88;100.00
55010;BME280;40903;51.638;7.528;2023-04-28T04:59:06;100599.88;;;8.89;100.00
55010;BME280;40903;51.638;7.528;2023-04-28T05:01:31;100601.22;;;8.92;100.00
55010;BME280;40903;51.638;7.528;2023-04-28T05:03:57;100598.50;;;8.92;100.00
55010;BME280;40903;51.638;7.528;2023-04-28T05:06:22;100599.31;;;8.97;100.00
55010;BME280;40903;51.638;7.528;2023-04-28T05:08:47;100601.97;;;9.02;100.00
55010;BME280;40903;51.638;7.528;2023-04-28T05:11:12;100604.13;;;9.05;100.00
55010;BME280;40903;51.638;7.528;2023-04-28T05:13:38;100604.91;;;9.11;100.00
55010;BME280;40903;51.638;7.528;2023-04-28T05:16:04;100606.25;;;9.13;100.00
55010;BME280;40903;51.638;7.528;2023-04-28T05:18:30;100601.88;;;9.17;100.00
55010;BME280;40903;51.638;7.528;2023-04-28T05:20:55;100596.94;;;9.19;100.00
55010;BME280;40903;51.638;7.528;2023-04-28T05:23:20;100599.09;;;9.22;100.00
55010;BME280;40903;51.638;7.528;2023-04-28T05:25:46;100594.72;;;9.26;100.00
55010;BME280;40903;51.638;7.528;2023-04-28T05:28:11;100593.06;;;9.30;100.00
55010;BME280;40903;51.638;7.528;2023-04-28T05:30:36;100593.56;;;9.32;100.00
55010;BME280;40903;51.638;7.528;2023-04-28T05:33:01;100594.63;;;9.36;100.00
55010;BME280;40903;51.638;7.528;2023-04-28T05:35:27;100595.72;;;9.35;100.00
55010;BME280;40903;51.638;7.528;2023-04-28T05:37:52;100586.97;;;9.38;100.00
55010;BME280;40903;51.638;7.528;2023-04-28T05:40:17;100584.50;;;9.42;100.00
55010;BME280;40903;51.638;7.528;2023-04-28T05:42:42;100582.03;;;9.45;100.00
55010;BME280;40903;51.638;7.528;2023-04-28T05:45:08;100577.13;;;9.47;100.00
55010;BME280;40903;51.638;7.528;2023-04-28T05:47:33;100578.16;;;9.51;100.00
55010;BME280;40903;51.638;7.528;2023-04-28T05:49:58;100576.78;;;9.54;100.00
55010;BME280;40903;51.638;7.528;2023-04-28T05:52:24;100579.75;;;9.57;100.00
55010;BME280;40903;51.638;7.528;2023-04-28T05:54:49;100577.50;;;9.64;100.00
55010;BME280;40903;51.638;7.528;2023-04-28T05:57:14;100576.88;;;9.72;100.00
55010;BME280;40903;51.638;7.528;2023-04-28T05:59:39;100568.91;;;9.80;100.00
55010;BME280;40903;51.638;7.528;2023-04-28T06:02:05;100572.06;;;9.87;100.00
55010;BME280;40903;51.638;7.528;2023-04-28T06:04:30;100572.59;;;9.89;100.00
55010;BME280;40903;51.638;7.528;2023-04-28T06:06:55;100567.88;;;10.00;100.00
55010;BME280;40903;51.638;7.528;2023-04-28T06:09:21;100565.34;;;10.08;100.00
55010;BME280;40903;51.638;7.528;2023-04-28T06:11:46;100563.59;;;10.17;100.00
55010;BME280;40903;51.638;7.528;2023-04-28T06:14:11;100554.25;;;10.23;100.00
55010;BME280;40903;51.638;7.528;2023-04-28T06:16:36;100544.63;;;10.31;100.00
55010;BME280;40903;51.638;7.528;2023-04-28T06:19:02;100554.84;;;10.39;100.00
55010;BME280;40903;51.638;7.528;2023-04-28T06:21:27;100549.88;;;10.46;100.00
55010;BME280;40903;51.638;7.528;2023-04-28T06:23:53;100546.03;;;10.47;100.00
55010;BME280;40903;51.638;7.528;2023-04-28T06:26:18;100552.06;;;10.44;100.00
55010;BME280;40903;51.638;7.528;2023-04-28T06:28:43;100550.91;;;10.50;100.00
55010;BME280;40903;51.638;7.528;2023-04-28T06:31:09;100551.13;;;10.53;100.00
55010;BME280;40903;51.638;7.528;2023-04-28T06:33:34;100544.25;;;10.56;100.00
55010;BME280;40903;51.638;7.528;2023-04-28T06:35:59;100547.00;;;10.56;100.00
55010;BME280;40903;51.638;7.528;2023-04-28T06:38:24;100551.06;;;10.58;100.00
55010;BME280;40903;51.638;7.528;2023-04-28T06:40:50;100562.19;;;10.62;100.00
55010;BME280;40903;51.638;7.528;2023-04-28T06:43:16;100552.03;;;10.67;100.00
55010;BME280;40903;51.638;7.528;2023-04-28T06:45:41;100549.72;;;10.74;100.00
55010;BME280;40903;51.638;7.528;2023-04-28T06:48:06;100540.16;;;10.77;100.00
55010;BME280;40903;51.638;7.528;2023-04-28T06:50:32;100525.31;;;10.83;100.00
55010;BME280;40903;51.638;7.528;2023-04-28T06:52:57;100527.38;;;10.91;100.00
55010;BME280;40903;51.638;7.528;2023-04-28T06:55:25;100522.84;;;11.00;100.00
55010;BME280;40903;51.638;7.528;2023-04-28T06:57:50;100516.41;;;11.09;100.00
55010;BME280;40903;51.638;7.528;2023-04-28T07:00:16;100525.56;;;11.18;100.00
55010;BME280;40903;51.638;7.528;2023-04-28T07:02:41;100520.00;;;11.23;100.00
55010;BME280;40903;51.638;7.528;2023-04-28T07:05:06;100517.41;;;11.32;100.00
55010;BME280;40903;51.638;7.528;2023-04-28T07:07:32;100511.53;;;11.38;100.00
55010;BME280;40903;51.638;7.528;2023-04-28T07:09:58;100509.03;;;11.42;100.00
55010;BME280;40903;51.638;7.528;2023-04-28T07:12:24;100507.91;;;11.43;100.00
55010;BME280;40903;51.638;7.528;2023-04-28T07:14:49;100506.31;;;11.42;100.00
55010;BME280;40903;51.638;7.528;2023-04-28T07:17:15;100510.66;;;11.43;100.00
55010;BME280;40903;51.638;7.528;2023-04-28T07:19:41;100510.66;;;11.43;100.00
55010;BME280;40903;51.638;7.528;2023-04-28T07:22:06;100510.66;;;11.43;100.00
55010;BME280;40903;51.638;7.528;2023-04-28T07:24:31;100510.25;;;11.36;100.00
55010;BME280;40903;51.638;7.528;2023-04-28T07:26:56;100513.50;;;11.38;100.00
55010;BME280;40903;51.638;7.528;2023-04-28T07:29:22;100509.94;;;11.37;100.00
55010;BME280;40903;51.638;7.528;2023-04-28T07:31:48;100514.28;;;11.38;100.00
55010;BME280;40903;51.638;7.528;2023-04-28T07:34:13;100520.06;;;11.37;100.00
55010;BME280;40903;51.638;7.528;2023-04-28T07:36:38;100525.41;;;11.42;100.00
55010;BME280;40903;51.638;7.528;2023-04-28T07:39:04;100525.41;;;11.42;100.00
55010;BME280;40903;51.638;7.528;2023-04-28T07:41:29;100519.66;;;11.43;100.00
55010;BME280;40903;51.638;7.528;2023-04-28T07:43:54;100519.28;;;11.50;100.00
55010;BME280;40903;51.638;7.528;2023-04-28T07:46:20;100516.44;;;11.55;100.00
55010;BME280;40903;51.638;7.528;2023-04-28T07:48:45;100521.34;;;11.58;100.00
55010;BME280;40903;51.638;7.528;2023-04-28T07:51:10;100522.06;;;11.63;100.00
55010;BME280;40903;51.638;7.528;2023-04-28T07:53:36;100519.94;;;11.73;100.00
55010;BME280;40903;51.638;7.528;2023-04-28T07:56:02;100505.47;;;11.86;100.00
55010;BME280;40903;51.638;7.528;2023-04-28T07:58:27;100502.44;;;12.01;100.00
55010;BME280;40903;51.638;7.528;2023-04-28T08:00:52;100505.75;;;12.12;100.00
55010;BME280;40903;51.638;7.528;2023-04-28T08:03:18;100515.75;;;12.30;100.00
55010;BME280;40903;51.638;7.528;2023-04-28T08:05:43;100522.22;;;12.47;100.00
55010;BME280;40903;51.638;7.528;2023-04-28T08:08:09;100512.25;;;12.65;100.00
55010;BME280;40903;51.638;7.528;2023-04-28T08:10:34;100525.38;;;12.76;100.00
55010;BME280;40903;51.638;7.528;2023-04-28T08:12:59;100515.00;;;12.87;100.00
55010;BME280;40903;51.638;7.528;2023-04-28T08:15:25;100520.13;;;13.02;100.00
55010;BME280;40903;51.638;7.528;2023-04-28T08:17:51;100518.78;;;13.13;100.00
55010;BME280;40903;51.638;7.528;2023-04-28T08:20:16;100522.97;;;13.19;100.00
55010;BME280;40903;51.638;7.528;2023-04-28T08:22:44;100511.97;;;13.32;100.00
55010;BME280;40903;51.638;7.528;2023-04-28T08:25:09;100528.13;;;13.42;100.00
55010;BME280;40903;51.638;7.528;2023-04-28T08:27:35;100529.50;;;13.53;100.00
55010;BME280;40903;51.638;7.528;2023-04-28T08:30:02;100517.94;;;13.65;100.00
55010;BME280;40903;51.638;7.528;2023-04-28T08:32:28;100521.81;;;13.64;100.00
55010;BME280;40903;51.638;7.528;2023-04-28T08:34:53;100524.59;;;13.72;100.00
55010;BME280;40903;51.638;7.528;2023-04-28T08:37:19;100517.84;;;13.78;100.00
55010;BME280;40903;51.638;7.528;2023-04-28T08:39:44;100515.28;;;13.81;100.00
55010;BME280;40903;51.638;7.528;2023-04-28T08:42:09;100510.47;;;13.87;100.00
55010;BME280;40903;51.638;7.528;2023-04-28T08:44:38;100509.06;;;13.98;100.00
55010;BME280;40903;51.638;7.528;2023-04-28T08:47:10;100498.75;;;14.03;100.00
55010;BME280;40903;51.638;7.528;2023-04-28T08:49:36;100498.84;;;14.20;100.00
55010;BME280;40903;51.638;7.528;2023-04-28T08:52:02;100497.91;;;14.42;100.00
55010;BME280;40903;51.638;7.528;2023-04-28T08:54:30;100489.22;;;14.57;100.00
55010;BME280;40903;51.638;7.528;2023-04-28T08:56:56;100493.25;;;14.68;98.67
55010;BME280;40903;51.638;7.528;2023-04-28T08:59:22;100488.06;;;14.92;98.98
55010;BME280;40903;51.638;7.528;2023-04-28T09:01:48;100486.56;;;15.28;96.62
55010;BME280;40903;51.638;7.528;2023-04-28T09:04:16;100485.03;;;15.65;92.80
55010;BME280;40903;51.638;7.528;2023-04-28T09:06:41;100489.22;;;15.99;92.22
55010;BME280;40903;51.638;7.528;2023-04-28T09:09:27;100489.34;;;16.11;90.27
55010;BME280;40903;51.638;7.528;2023-04-28T09:11:58;100490.16;;;16.41;87.69
55010;BME280;40903;51.638;7.528;2023-04-28T09:14:25;100479.41;;;16.48;85.90
55010;BME280;40903;51.638;7.528;2023-04-28T09:16:51;100486.34;;;16.54;83.90
55010;BME280;40903;51.638;7.528;2023-04-28T09:19:16;100477.66;;;16.84;86.74
55010;BME280;40903;51.638;7.528;2023-04-28T09:22:00;100467.22;;;17.10;84.14
55010;BME280;40903;51.638;7.528;2023-04-28T09:24:28;100472.56;;;17.27;81.53
55010;BME280;40903;51.638;7.528;2023-04-28T09:26:54;100461.31;;;17.32;80.56
55010;BME280;40903;51.638;7.528;2023-04-28T09:29:19;100468.63;;;17.49;81.25
55010;BME280;40903;51.638;7.528;2023-04-28T09:31:44;100464.94;;;17.57;76.66
55010;BME280;40903;51.638;7.528;2023-04-28T09:34:10;100455.31;;;17.63;77.92
55010;BME280;40903;51.638;7.528;2023-04-28T09:36:36;100460.72;;;17.71;80.02
55010;BME280;40903;51.638;7.528;2023-04-28T09:39:02;100461.88;;;17.82;78.10
55010;BME280;40903;51.638;7.528;2023-04-28T09:41:43;100460.47;;;17.64;76.96
55010;BME280;40903;51.638;7.528;2023-04-28T09:44:13;100465.78;;;17.69;78.27
55010;BME280;40903;51.638;7.528;2023-04-28T09:46:39;100466.00;;;17.88;78.81
55010;BME280;40903;51.638;7.528;2023-04-28T09:49:04;100463.25;;;18.00;77.42
55010;BME280;40903;51.638;7.528;2023-04-28T09:51:30;100453.72;;;18.09;76.80
55010;BME280;40903;51.638;7.528;2023-04-28T09:53:55;100456.22;;;18.14;78.49
55010;BME280;40903;51.638;7.528;2023-04-28T09:56:23;100451.72;;;18.22;78.65
55010;BME280;40903;51.638;7.528;2023-04-28T09:58:51;100453.72;;;18.33;78.42
55010;BME280;40903;51.638;7.528;2023-04-28T10:01:17;100451.88;;;18.37;76.79
55010;BME280;40903;51.638;7.528;2023-04-28T10:03:43;100452.19;;;18.36;77.58
55010;BME280;40903;51.638;7.528;2023-04-28T10:06:08;100452.88;;;18.45;77.03
55010;BME280;40903;51.638;7.528;2023-04-28T10:08:34;100449.44;;;18.36;75.58
55010;BME280;40903;51.638;7.528;2023-04-28T10:10:59;100448.59;;;18.47;76.01
55010;BME280;40903;51.638;7.528;2023-04-28T10:13:25;100449.75;;;18.46;75.27
55010;BME280;40903;51.638;7.528;2023-04-28T10:15:50;100448.22;;;18.33;74.09
55010;BME280;40903;51.638;7.528;2023-04-28T10:18:19;100441.03;;;18.32;75.34
55010;BME280;40903;51.638;7.528;2023-04-28T10:20:47;100431.97;;;18.20;76.04
55010;BME280;40903;51.638;7.528;2023-04-28T10:25:57;100434.97;;;18.03;76.44
55010;BME280;40903;51.638;7.528;2023-04-28T10:28:24;100434.63;;;18.04;77.47
55010;BME280;40903;51.638;7.528;2023-04-28T10:33:34;100432.78;;;17.96;79.32
55010;BME280;40903;51.638;7.528;2023-04-28T10:36:00;100433.94;;;18.07;77.45
55010;BME280;40903;51.638;7.528;2023-04-28T10:38:27;100434.03;;;18.23;77.09
55010;BME280;40903;51.638;7.528;2023-04-28T10:40:53;100424.16;;;18.34;77.63
55010;BME280;40903;51.638;7.528;2023-04-28T10:48:21;100419.31;;;18.70;76.41
55010;BME280;40903;51.638;7.528;2023-04-28T10:56:11;100432.16;;;19.06;75.85
55010;BME280;40903;51.638;7.528;2023-04-28T10:58:40;100426.97;;;18.89;75.40
55010;BME280;40903;51.638;7.528;2023-04-28T11:08:47;100412.69;;;18.87;75.50
55010;BME280;40903;51.638;7.528;2023-04-28T11:11:13;100410.38;;;18.89;75.11
55010;BME280;40903;51.638;7.528;2023-04-28T11:13:39;100403.16;;;19.00;75.55
55010;BME280;40903;51.638;7.528;2023-04-28T11:16:04;100401.81;;;18.78;75.42
55010;BME280;40903;51.638;7.528;2023-04-28T11:21:16;100406.97;;;18.80;75.46
55010;BME280;40903;51.638;7.528;2023-04-28T11:23:42;100414.91;;;18.81;76.93
55010;BME280;40903;51.638;7.528;2023-04-28T11:26:07;100415.94;;;18.77;75.76
55010;BME280;40903;51.638;7.528;2023-04-28T11:28:32;100414.88;;;18.54;77.73
55010;BME280;40903;51.638;7.528;2023-04-28T11:31:10;100410.19;;;18.42;78.31
55010;BME280;40903;51.638;7.528;2023-04-28T11:33:36;100415.63;;;18.27;78.31
55010;BME280;40903;51.638;7.528;2023-04-28T11:36:02;100417.94;;;18.13;78.61
55010;BME280;40903;51.638;7.528;2023-04-28T11:38:27;100417.72;;;17.94;79.83
55010;BME280;40903;51.638;7.528;2023-04-28T11:40:58;100420.97;;;17.84;81.85
55010;BME280;40903;51.638;7.528;2023-04-28T11:43:28;100421.78;;;17.73;81.53
55010;BME280;40903;51.638;7.528;2023-04-28T11:45:53;100419.81;;;17.61;83.31
55010;BME280;40903;51.638;7.528;2023-04-28T11:48:21;100423.47;;;17.53;85.19
55010;BME280;40903;51.638;7.528;2023-04-28T11:50:47;100426.25;;;17.53;87.37
55010;BME280;40903;51.638;7.528;2023-04-28T11:53:12;100425.09;;;17.54;86.75
55010;BME280;40903;51.638;7.528;2023-04-28T11:55:37;100428.19;;;17.53;88.32
55010;BME280;40903;51.638;7.528;2023-04-28T11:58:19;100424.38;;;17.45;88.15
55010;BME280;40903;51.638;7.528;2023-04-28T12:01:05;100427.84;;;17.42;90.99
55010;BME280;40903;51.638;7.528;2023-04-28T12:03:30;100432.75;;;17.37;92.35
55010;BME280;40903;51.638;7.528;2023-04-28T12:05:55;100427.75;;;17.18;93.25
55010;BME280;40903;51.638;7.528;2023-04-28T12:08:30;100431.81;;;17.00;96.73
55010;BME280;40903;51.638;7.528;2023-04-28T12:11:08;100431.59;;;16.93;97.85
55010;BME280;40903;51.638;7.528;2023-04-28T12:13:34;100438.56;;;16.91;99.43
55010;BME280;40903;51.638;7.528;2023-04-28T12:16:00;100433.47;;;16.81;100.00
55010;BME280;40903;51.638;7.528;2023-04-28T12:18:27;100432.94;;;16.67;100.00
55010;BME280;40903;51.638;7.528;2023-04-28T12:20:52;100438.19;;;16.39;100.00
55010;BME280;40903;51.638;7.528;2023-04-28T12:23:27;100435.47;;;16.31;100.00
55010;BME280;40903;51.638;7.528;2023-04-28T12:25:52;100443.53;;;16.15;100.00
55010;BME280;40903;51.638;7.528;2023-04-28T12:28:18;100437.06;;;16.11;100.00
55010;BME280;40903;51.638;7.528;2023-04-28T12:30:43;100446.75;;;16.17;100.00
55010;BME280;40903;51.638;7.528;2023-04-28T12:33:25;100442.94;;;16.30;100.00
55010;BME280;40903;51.638;7.528;2023-04-28T12:35:51;100446.38;;;16.48;100.00
55010;BME280;40903;51.638;7.528;2023-04-28T12:38:18;100444.47;;;16.48;100.00
55010;BME280;40903;51.638;7.528;2023-04-28T12:40:44;100444.38;;;16.57;100.00
55010;BME280;40903;51.638;7.528;2023-04-28T12:43:09;100451.09;;;16.47;100.00
55010;BME280;40903;51.638;7.528;2023-04-28T12:45:35;100448.91;;;16.32;100.00
55010;BME280;40903;51.638;7.528;2023-04-28T12:48:00;100442.34;;;16.25;100.00
55010;BME280;40903;51.638;7.528;2023-04-28T12:50:26;100446.34;;;16.27;100.00
55010;BME280;40903;51.638;7.528;2023-04-28T12:52:53;100450.84;;;16.32;100.00
55010;BME280;40903;51.638;7.528;2023-04-28T12:55:20;100449.56;;;16.29;100.00
55010;BME280;40903;51.638;7.528;2023-04-28T12:57:45;100447.16;;;16.28;100.00
55010;BME280;40903;51.638;7.528;2023-04-28T13:00:10;100448.31;;;16.27;100.00
55010;BME280;40903;51.638;7.528;2023-04-28T13:02:38;100440.94;;;16.39;100.00
55010;BME280;40903;51.638;7.528;2023-04-28T13:05:04;100442.84;;;16.47;100.00
55010;BME280;40903;51.638;7.528;2023-04-28T13:07:30;100444.25;;;16.53;100.00
55010;BME280;40903;51.638;7.528;2023-04-28T13:09:56;100440.69;;;16.53;100.00